sensor_id;sensor_type;location;lat;lon;timestamp;pressure;altitude;pressure_sealevel;temperature;humidity
49063;BME280;34876;51.464;-0.150;2022-10-16T00:03:13;100515.73;;;18.67;50.88
49063;BME280;34876;51.464;-0.150;2022-10-16T00:05:43;100517.64;;;18.63;50.99
49063;BME280;34876;51.464;-0.150;2022-10-16T00:08:12;100514.46;;;18.66;50.87
49063;BME280;34876;51.464;-0.150;2022-10-16T00:10:42;100512.67;;;18.65;50.88
49063;BME280;34876;51.464;-0.150;2022-10-16T00:13:11;100515.22;;;18.66;50.89
49063;BME280;34876;51.464;-0.150;2022-10-16T00:15:41;100516.84;;;18.68;50.83
49063;BME280;34876;51.464;-0.150;2022-10-16T00:18:10;100519.03;;;18.68;50.84
49063;BME280;34876;51.464;-0.150;2022-10-16T00:20:39;100518.78;;;18.66;50.85
49063;BME280;34876;51.464;-0.150;2022-10-16T00:23:08;100517.07;;;18.67;50.82
49063;BME280;34876;51.464;-0.150;2022-10-16T00:25:38;100519.78;;;18.66;50.79
49063;BME280;34876;51.464;-0.150;2022-10-16T00:28:08;100526.17;;;18.59;50.97
49063;BME280;34876;51.464;-0.150;2022-10-16T00:30:37;100525.78;;;18.64;50.88
49063;BME280;34876;51.464;-0.150;2022-10-16T00:33:06;100532.23;;;18.64;50.86
49063;BME280;34876;51.464;-0.150;2022-10-16T00:35:36;100531.75;;;18.61;50.94
49063;BME280;34876;51.464;-0.150;2022-10-16T00:38:05;100533.05;;;18.62;50.93
49063;BME280;34876;51.464;-0.150;2022-10-16T00:40:34;100530.61;;;18.61;50.91
49063;BME280;34876;51.464;-0.150;2022-10-16T00:43:07;100530.60;;;18.62;50.90
49063;BME280;34876;51.464;-0.150;2022-10-16T00:45:38;100532.74;;;18.62;50.85
49063;BME280;34876;51.464;-0.150;2022-10-16T00:48:11;100533.11;;;18.61;50.89
49063;BME280;34876;51.464;-0.150;2022-10-16T00:50:41;100537.28;;;18.62;50.86
49063;BME280;34876;51.464;-0.150;2022-10-16T00:53:11;100537.39;;;18.62;50.87
49063;BME280;34876;51.464;-0.150;2022-10-16T00:55:40;100536.40;;;18.62;50.81
49063;BME280;34876;51.464;-0.150;2022-10-16T00:58:09;100536.54;;;18.61;50.86
49063;BME280;34876;51.464;-0.150;2022-10-16T01:00:38;100537.93;;;18.63;50.85
49063;BME280;34876;51.464;-0.150;2022-10-16T01:03:25;100540.87;;;18.63;50.77
49063;BME280;34876;51.464;-0.150;2022-10-16T01:06:03;100539.14;;;18.60;50.89
49063;BME280;34876;51.464;-0.150;2022-10-16T01:08:42;100547.12;;;18.62;50.85
49063;BME280;34876;51.464;-0.150;2022-10-16T01:11:19;100543.21;;;18.57;50.92
49063;BME280;34876;51.464;-0.150;2022-10-16T01:13:54;100549.32;;;18.60;50.84
49063;BME280;34876;51.464;-0.150;2022-10-16T01:16:32;100552.80;;;18.61;50.83
49063;BME280;34876;51.464;-0.150;2022-10-16T01:19:09;100554.77;;;18.59;50.89
49063;BME280;34876;51.464;-0.150;2022-10-16T01:21:43;100555.34;;;18.58;50.90
49063;BME280;34876;51.464;-0.150;2022-10-16T01:24:26;100559.15;;;18.60;50.88
49063;BME280;34876;51.464;-0.150;2022-10-16T01:27:05;100560.44;;;18.52;51.02
49063;BME280;34876;51.464;-0.150;2022-10-16T01:29:37;100561.54;;;18.58;50.85
49063;BME280;34876;51.464;-0.150;2022-10-16T01:32:15;100559.47;;;18.58;50.87
49063;BME280;34876;51.464;-0.150;2022-10-16T01:34:50;100562.00;;;18.59;50.83
49063;BME280;34876;51.464;-0.150;2022-10-16T01:37:29;100566.35;;;18.58;50.82
49063;BME280;34876;51.464;-0.150;2022-10-16T01:40:05;100566.51;;;18.60;50.75
49063;BME280;34876;51.464;-0.150;2022-10-16T01:42:37;100568.52;;;18.50;50.24
49063;BME280;34876;51.464;-0.150;2022-10-16T01:45:08;100573.45;;;18.58;50.79
49063;BME280;34876;51.464;-0.150;2022-10-16T01:47:40;100576.67;;;18.60;50.77
49063;BME280;34876;51.464;-0.150;2022-10-16T01:50:10;100584.80;;;18.60;50.79
49063;BME280;34876;51.464;-0.150;2022-10-16T01:52:43;100575.35;;;18.59;50.78
49063;BME280;34876;51.464;-0.150;2022-10-16T01:55:20;100584.08;;;18.57;50.83
49063;BME280;34876;51.464;-0.150;2022-10-16T01:57:54;100585.70;;;18.58;50.79
49063;BME280;34876;51.464;-0.150;2022-10-16T02:00:24;100580.77;;;18.59;50.78
49063;BME280;34876;51.464;-0.150;2022-10-16T02:02:57;100572.17;;;18.47;51.07
49063;BME280;34876;51.464;-0.150;2022-10-16T02:05:31;100581.24;;;18.57;50.85
49063;BME280;34876;51.464;-0.150;2022-10-16T02:08:02;100582.73;;;18.53;50.96
49063;BME280;34876;51.464;-0.150;2022-10-16T02:10:32;100584.38;;;18.45;51.24
49063;BME280;34876;51.464;-0.150;2022-10-16T02:13:04;100583.76;;;18.40;51.28
49063;BME280;34876;51.464;-0.150;2022-10-16T02:15:35;100586.12;;;18.50;51.10
49063;BME280;34876;51.464;-0.150;2022-10-16T02:18:05;100595.15;;;18.49;51.18
49063;BME280;34876;51.464;-0.150;2022-10-16T02:20:42;100596.09;;;18.48;50.89
49063;BME280;34876;51.464;-0.150;2022-10-16T02:23:19;100603.58;;;18.57;50.92
49063;BME280;34876;51.464;-0.150;2022-10-16T02:25:54;100605.86;;;18.56;50.94
49063;BME280;34876;51.464;-0.150;2022-10-16T02:28:29;100610.15;;;18.51;51.05
49063;BME280;34876;51.464;-0.150;2022-10-16T02:31:05;100612.71;;;18.54;50.96
49063;BME280;34876;51.464;-0.150;2022-10-16T02:33:39;100619.09;;;18.52;50.97
49063;BME280;34876;51.464;-0.150;2022-10-16T02:36:11;100622.21;;;18.47;51.14
49063;BME280;34876;51.464;-0.150;2022-10-16T02:38:41;100624.70;;;18.54;50.94
49063;BME280;34876;51.464;-0.150;2022-10-16T02:41:11;100627.65;;;18.31;51.45
49063;BME280;34876;51.464;-0.150;2022-10-16T02:43:42;100623.33;;;18.49;51.09
49063;BME280;34876;51.464;-0.150;2022-10-16T02:46:10;100628.15;;;18.53;51.00
49063;BME280;34876;51.464;-0.150;2022-10-16T02:48:40;100626.83;;;18.54;50.91
49063;BME280;34876;51.464;-0.150;2022-10-16T02:51:10;100629.79;;;18.54;50.93
49063;BME280;34876;51.464;-0.150;2022-10-16T02:53:40;100631.93;;;18.53;50.96
49063;BME280;34876;51.464;-0.150;2022-10-16T02:56:09;100638.12;;;18.53;50.95
49063;BME280;34876;51.464;-0.150;2022-10-16T02:58:38;100638.81;;;18.52;50.97
49063;BME280;34876;51.464;-0.150;2022-10-16T03:01:07;100640.63;;;18.51;50.99
49063;BME280;34876;51.464;-0.150;2022-10-16T03:03:36;100648.75;;;18.52;50.94
49063;BME280;34876;51.464;-0.150;2022-10-16T03:06:05;100650.81;;;18.47;51.12
49063;BME280;34876;51.464;-0.150;2022-10-16T03:08:34;100651.20;;;18.50;51.06
49063;BME280;34876;51.464;-0.150;2022-10-16T03:11:02;100655.90;;;18.49;51.01
49063;BME280;34876;51.464;-0.150;2022-10-16T03:13:32;100654.32;;;18.49;51.01
49063;BME280;34876;51.464;-0.150;2022-10-16T03:16:04;100658.35;;;18.51;50.93
49063;BME280;34876;51.464;-0.150;2022-10-16T03:18:33;100660.54;;;18.50;50.96
49063;BME280;34876;51.464;-0.150;2022-10-16T03:21:02;100660.35;;;18.51;50.90
49063;BME280;34876;51.464;-0.150;2022-10-16T03:23:31;100668.47;;;18.50;50.88
49063;BME280;34876;51.464;-0.150;2022-10-16T03:26:00;100670.92;;;18.48;50.91
49063;BME280;34876;51.464;-0.150;2022-10-16T03:28:29;100669.42;;;18.48;50.93
49063;BME280;34876;51.464;-0.150;2022-10-16T03:30:58;100668.95;;;18.48;50.91
49063;BME280;34876;51.464;-0.150;2022-10-16T03:33:32;100667.04;;;18.45;50.93
49063;BME280;34876;51.464;-0.150;2022-10-16T03:36:02;100670.96;;;18.48;50.86
49063;BME280;34876;51.464;-0.150;2022-10-16T03:38:31;100672.06;;;18.48;50.82
49063;BME280;34876;51.464;-0.150;2022-10-16T03:40:59;100677.93;;;18.46;50.85
49063;BME280;34876;51.464;-0.150;2022-10-16T03:43:28;100675.29;;;18.46;50.82
49063;BME280;34876;51.464;-0.150;2022-10-16T03:45:57;100669.20;;;18.46;50.82
49063;BME280;34876;51.464;-0.150;2022-10-16T03:48:27;100665.46;;;18.47;50.75
49063;BME280;34876;51.464;-0.150;2022-10-16T03:50:56;100667.01;;;18.47;50.73
49063;BME280;34876;51.464;-0.150;2022-10-16T03:53:25;100671.41;;;18.45;50.77
49063;BME280;34876;51.464;-0.150;2022-10-16T03:55:54;100675.29;;;18.46;50.69
49063;BME280;34876;51.464;-0.150;2022-10-16T03:58:23;100681.46;;;18.36;51.03
49063;BME280;34876;51.464;-0.150;2022-10-16T04:00:52;100687.76;;;18.43;50.82
49063;BME280;34876;51.464;-0.150;2022-10-16T04:03:21;100690.93;;;18.43;50.83
49063;BME280;34876;51.464;-0.150;2022-10-16T04:05:52;100698.90;;;18.30;51.08
49063;BME280;34876;51.464;-0.150;2022-10-16T04:08:21;100704.34;;;18.41;50.85
49063;BME280;34876;51.464;-0.150;2022-10-16T04:10:50;100708.59;;;18.43;50.76
49063;BME280;34876;51.464;-0.150;2022-10-16T04:13:19;100705.03;;;18.37;50.86
49063;BME280;34876;51.464;-0.150;2022-10-16T04:15:49;100708.78;;;18.41;50.75
49063;BME280;34876;51.464;-0.150;2022-10-16T04:18:18;100712.21;;;18.41;50.73
49063;BME280;34876;51.464;-0.150;2022-10-16T04:20:47;100714.68;;;18.42;50.68
49063;BME280;34876;51.464;-0.150;2022-10-16T04:23:16;100719.48;;;18.41;50.70
49063;BME280;34876;51.464;-0.150;2022-10-16T04:25:45;100718.74;;;18.41;50.66
49063;BME280;34876;51.464;-0.150;2022-10-16T04:28:14;100727.67;;;18.42;50.64
49063;BME280;34876;51.464;-0.150;2022-10-16T04:30:43;100734.95;;;18.42;50.65
49063;BME280;34876;51.464;-0.150;2022-10-16T04:33:11;100744.14;;;18.31;50.94
49063;BME280;34876;51.464;-0.150;2022-10-16T04:35:40;100751.03;;;18.37;50.83
49063;BME280;34876;51.464;-0.150;2022-10-16T04:38:09;100757.39;;;18.39;50.71
49063;BME280;34876;51.464;-0.150;2022-10-16T04:40:38;100763.05;;;18.36;50.76
49063;BME280;34876;51.464;-0.150;2022-10-16T04:43:07;100771.27;;;18.38;50.76
49063;BME280;34876;51.464;-0.150;2022-10-16T04:45:36;100777.66;;;18.40;50.63
49063;BME280;34876;51.464;-0.150;2022-10-16T04:48:05;100782.30;;;18.40;50.68
49063;BME280;34876;51.464;-0.150;2022-10-16T04:50:34;100787.52;;;18.37;50.70
49063;BME280;34876;51.464;-0.150;2022-10-16T04:53:03;100793.03;;;18.38;50.66
49063;BME280;34876;51.464;-0.150;2022-10-16T04:55:32;100794.69;;;18.37;50.67
49063;BME280;34876;51.464;-0.150;2022-10-16T04:58:01;100797.51;;;18.37;50.64
49063;BME280;34876;51.464;-0.150;2022-10-16T05:00:29;100801.52;;;18.29;50.85
49063;BME280;34876;51.464;-0.150;2022-10-16T05:02:58;100805.86;;;18.35;50.70
49063;BME280;34876;51.464;-0.150;2022-10-16T05:05:27;100811.34;;;18.28;50.88
49063;BME280;34876;51.464;-0.150;2022-10-16T05:07:56;100816.38;;;18.33;50.73
49063;BME280;34876;51.464;-0.150;2022-10-16T05:10:25;100820.24;;;18.32;50.74
49063;BME280;34876;51.464;-0.150;2022-10-16T05:12:55;100822.62;;;18.34;50.60
49063;BME280;34876;51.464;-0.150;2022-10-16T05:15:24;100828.54;;;18.29;50.81
49063;BME280;34876;51.464;-0.150;2022-10-16T05:17:53;100829.16;;;18.33;50.66
49063;BME280;34876;51.464;-0.150;2022-10-16T05:20:23;100836.10;;;18.34;50.60
49063;BME280;34876;51.464;-0.150;2022-10-16T05:22:51;100837.00;;;18.27;50.83
49063;BME280;34876;51.464;-0.150;2022-10-16T05:25:21;100838.10;;;18.31;50.68
49063;BME280;34876;51.464;-0.150;2022-10-16T05:27:50;100844.04;;;18.31;50.69
49063;BME280;34876;51.464;-0.150;2022-10-16T05:30:19;100848.18;;;18.35;50.60
49063;BME280;34876;51.464;-0.150;2022-10-16T05:32:49;100851.75;;;18.32;50.61
49063;BME280;34876;51.464;-0.150;2022-10-16T05:35:18;100856.53;;;18.34;50.50
49063;BME280;34876;51.464;-0.150;2022-10-16T05:37:47;100860.26;;;18.30;50.61
49063;BME280;34876;51.464;-0.150;2022-10-16T05:40:16;100867.09;;;18.32;50.59
49063;BME280;34876;51.464;-0.150;2022-10-16T05:42:45;100869.75;;;18.33;50.55
49063;BME280;34876;51.464;-0.150;2022-10-16T05:45:14;100875.23;;;18.30;50.61
49063;BME280;34876;51.464;-0.150;2022-10-16T05:47:43;100880.43;;;18.30;50.61
49063;BME280;34876;51.464;-0.150;2022-10-16T05:50:11;100883.68;;;18.31;50.53
49063;BME280;34876;51.464;-0.150;2022-10-16T05:52:40;100887.26;;;18.30;50.56
49063;BME280;34876;51.464;-0.150;2022-10-16T05:55:09;100888.41;;;18.25;50.58
49063;BME280;34876;51.464;-0.150;2022-10-16T05:57:39;100887.44;;;18.30;50.54
49063;BME280;34876;51.464;-0.150;2022-10-16T06:00:09;100897.32;;;18.29;50.55
49063;BME280;34876;51.464;-0.150;2022-10-16T06:02:39;100901.19;;;18.30;50.49
49063;BME280;34876;51.464;-0.150;2022-10-16T06:05:08;100907.44;;;18.29;50.48
49063;BME280;34876;51.464;-0.150;2022-10-16T06:07:37;100914.34;;;18.30;50.40
49063;BME280;34876;51.464;-0.150;2022-10-16T06:10:07;100918.61;;;18.30;50.40
49063;BME280;34876;51.464;-0.150;2022-10-16T06:12:36;100921.40;;;18.28;50.44
49063;BME280;34876;51.464;-0.150;2022-10-16T06:15:05;100921.83;;;18.31;50.36
49063;BME280;34876;51.464;-0.150;2022-10-16T06:17:36;100921.18;;;18.29;50.34
49063;BME280;34876;51.464;-0.150;2022-10-16T06:20:05;100925.49;;;18.28;50.37
49063;BME280;34876;51.464;-0.150;2022-10-16T06:22:35;100923.22;;;18.26;50.39
49063;BME280;34876;51.464;-0.150;2022-10-16T06:25:06;100925.79;;;18.26;50.35
49063;BME280;34876;51.464;-0.150;2022-10-16T06:27:35;100924.91;;;18.25;50.41
49063;BME280;34876;51.464;-0.150;2022-10-16T06:30:05;100925.42;;;18.27;50.30
49063;BME280;34876;51.464;-0.150;2022-10-16T06:32:34;100928.32;;;18.26;50.34
49063;BME280;34876;51.464;-0.150;2022-10-16T06:35:05;100937.69;;;18.27;50.27
49063;BME280;34876;51.464;-0.150;2022-10-16T06:37:34;100942.06;;;18.26;50.27
49063;BME280;34876;51.464;-0.150;2022-10-16T06:40:04;100944.69;;;18.25;50.30
49063;BME280;34876;51.464;-0.150;2022-10-16T06:42:34;100946.93;;;18.25;50.30
49063;BME280;34876;51.464;-0.150;2022-10-16T06:45:03;100946.48;;;18.25;50.26
49063;BME280;34876;51.464;-0.150;2022-10-16T06:47:32;100947.30;;;18.25;50.22
49063;BME280;34876;51.464;-0.150;2022-10-16T06:50:02;100948.87;;;18.25;50.18
49063;BME280;34876;51.464;-0.150;2022-10-16T06:52:31;100954.44;;;18.24;50.22
49063;BME280;34876;51.464;-0.150;2022-10-16T06:55:01;100958.34;;;18.24;50.20
49063;BME280;34876;51.464;-0.150;2022-10-16T06:57:29;100958.42;;;18.24;50.16
49063;BME280;34876;51.464;-0.150;2022-10-16T06:59:58;100961.76;;;18.25;50.13
49063;BME280;34876;51.464;-0.150;2022-10-16T07:02:27;100964.61;;;18.24;50.18
49063;BME280;34876;51.464;-0.150;2022-10-16T07:04:57;100976.04;;;18.26;50.09
49063;BME280;34876;51.464;-0.150;2022-10-16T07:07:26;100985.56;;;18.27;50.08
49063;BME280;34876;51.464;-0.150;2022-10-16T07:09:55;100995.07;;;18.27;50.02
49063;BME280;34876;51.464;-0.150;2022-10-16T07:12:24;101001.67;;;18.27;50.00
49063;BME280;34876;51.464;-0.150;2022-10-16T07:14:53;101003.91;;;18.28;49.98
49063;BME280;34876;51.464;-0.150;2022-10-16T07:17:21;101008.55;;;18.29;49.88
49063;BME280;34876;51.464;-0.150;2022-10-16T07:19:50;101014.39;;;18.32;49.80
49063;BME280;34876;51.464;-0.150;2022-10-16T07:22:19;101021.83;;;18.30;49.87
49063;BME280;34876;51.464;-0.150;2022-10-16T07:24:48;101026.60;;;18.30;49.86
49063;BME280;34876;51.464;-0.150;2022-10-16T07:27:18;101028.96;;;18.31;49.83
49063;BME280;34876;51.464;-0.150;2022-10-16T07:29:46;101036.60;;;18.32;49.77
49063;BME280;34876;51.464;-0.150;2022-10-16T07:32:16;101038.47;;;18.33;49.74
49063;BME280;34876;51.464;-0.150;2022-10-16T07:34:45;101037.69;;;18.33;49.71
49063;BME280;34876;51.464;-0.150;2022-10-16T07:37:15;101040.25;;;18.34;49.65
49063;BME280;34876;51.464;-0.150;2022-10-16T07:39:44;101044.27;;;18.36;49.61
49063;BME280;34876;51.464;-0.150;2022-10-16T07:42:14;101049.49;;;18.37;49.56
49063;BME280;34876;51.464;-0.150;2022-10-16T07:44:43;101053.36;;;18.38;49.55
49063;BME280;34876;51.464;-0.150;2022-10-16T07:47:12;101058.74;;;18.37;49.56
49063;BME280;34876;51.464;-0.150;2022-10-16T07:49:40;101060.85;;;18.43;49.36
49063;BME280;34876;51.464;-0.150;2022-10-16T07:52:14;101066.03;;;18.41;49.40
49063;BME280;34876;51.464;-0.150;2022-10-16T07:54:44;101066.34;;;18.40;49.45
49063;BME280;34876;51.464;-0.150;2022-10-16T07:57:14;101064.90;;;18.10;50.02
49063;BME280;34876;51.464;-0.150;2022-10-16T07:59:43;101064.01;;;18.36;49.56
49063;BME280;34876;51.464;-0.150;2022-10-16T08:02:12;101065.38;;;18.43;49.39
49063;BME280;34876;51.464;-0.150;2022-10-16T08:04:41;101064.26;;;18.50;49.14
49063;BME280;34876;51.464;-0.150;2022-10-16T08:07:11;101070.29;;;18.44;49.33
49063;BME280;34876;51.464;-0.150;2022-10-16T08:09:40;101074.95;;;18.52;49.14
49063;BME280;34876;51.464;-0.150;2022-10-16T08:12:10;101076.81;;;18.47;49.26
49063;BME280;34876;51.464;-0.150;2022-10-16T08:14:39;101079.95;;;18.53;49.05
49063;BME280;34876;51.464;-0.150;2022-10-16T08:17:08;101081.84;;;18.54;49.07
49063;BME280;34876;51.464;-0.150;2022-10-16T08:19:37;101089.64;;;18.56;48.95
49063;BME280;34876;51.464;-0.150;2022-10-16T08:22:07;101100.95;;;18.55;49.02
49063;BME280;34876;51.464;-0.150;2022-10-16T08:24:37;101108.42;;;18.60;48.91
49063;BME280;34876;51.464;-0.150;2022-10-16T08:27:05;101109.45;;;18.59;48.90
49063;BME280;34876;51.464;-0.150;2022-10-16T08:29:52;101114.86;;;18.61;48.88
49063;BME280;34876;51.464;-0.150;2022-10-16T08:32:20;101116.76;;;18.61;48.91
49063;BME280;34876;51.464;-0.150;2022-10-16T08:34:49;101110.77;;;18.68;48.70
49063;BME280;34876;51.464;-0.150;2022-10-16T08:37:19;101121.42;;;18.60;48.92
49063;BME280;34876;51.464;-0.150;2022-10-16T08:39:48;101122.68;;;18.65;48.79
49063;BME280;34876;51.464;-0.150;2022-10-16T08:42:33;101126.29;;;18.66;48.76
49063;BME280;34876;51.464;-0.150;2022-10-16T08:45:21;101131.75;;;18.61;48.92
49063;BME280;34876;51.464;-0.150;2022-10-16T08:48:04;101135.85;;;18.65;48.82
49063;BME280;34876;51.464;-0.150;2022-10-16T08:50:38;101140.12;;;18.84;48.37
49063;BME280;34876;51.464;-0.150;2022-10-16T08:53:13;101139.58;;;18.96;47.95
49063;BME280;34876;51.464;-0.150;2022-10-16T08:55:50;101144.65;;;18.89;48.19
49063;BME280;34876;51.464;-0.150;2022-10-16T08:58:21;101143.68;;;18.86;48.17
49063;BME280;34876;51.464;-0.150;2022-10-16T09:00:55;101143.14;;;18.80;48.41
49063;BME280;34876;51.464;-0.150;2022-10-16T09:03:32;101143.82;;;18.78;48.45
49063;BME280;34876;51.464;-0.150;2022-10-16T09:06:17;101149.26;;;18.74;48.52
49063;BME280;34876;51.464;-0.150;2022-10-16T09:09:00;101153.96;;;18.75;48.52
49063;BME280;34876;51.464;-0.150;2022-10-16T09:11:41;101157.88;;;18.78;48.50
49063;BME280;34876;51.464;-0.150;2022-10-16T09:14:30;101157.73;;;18.76;48.52
49063;BME280;34876;51.464;-0.150;2022-10-16T09:17:17;101157.27;;;18.84;48.29
49063;BME280;34876;51.464;-0.150;2022-10-16T09:19:53;101160.48;;;18.87;48.21
49063;BME280;34876;51.464;-0.150;2022-10-16T09:22:27;101167.06;;;18.89;48.17
49063;BME280;34876;51.464;-0.150;2022-10-16T09:25:00;101170.60;;;18.93;48.10
49063;BME280;34876;51.464;-0.150;2022-10-16T09:27:40;101173.08;;;18.87;48.23
49063;BME280;34876;51.464;-0.150;2022-10-16T09:30:12;101174.72;;;18.84;48.36
49063;BME280;34876;51.464;-0.150;2022-10-16T09:32:42;101172.62;;;19.07;47.72
49063;BME280;34876;51.464;-0.150;2022-10-16T09:35:16;101173.19;;;19.21;47.34
49063;BME280;34876;51.464;-0.150;2022-10-16T09:37:50;101178.93;;;19.03;47.82
49063;BME280;34876;51.464;-0.150;2022-10-16T09:40:26;101179.89;;;19.02;47.85
49063;BME280;34876;51.464;-0.150;2022-10-16T09:43:02;101178.52;;;18.97;48.03
49063;BME280;34876;51.464;-0.150;2022-10-16T09:45:32;101176.75;;;18.92;48.20
49063;BME280;34876;51.464;-0.150;2022-10-16T09:48:11;101176.85;;;18.96;48.06
49063;BME280;34876;51.464;-0.150;2022-10-16T09:50:41;101174.79;;;18.92;48.24
49063;BME280;34876;51.464;-0.150;2022-10-16T09:53:11;101175.92;;;18.95;48.09
49063;BME280;34876;51.464;-0.150;2022-10-16T09:55:48;101178.70;;;18.89;48.31
49063;BME280;34876;51.464;-0.150;2022-10-16T09:58:17;101177.48;;;18.97;48.06
49063;BME280;34876;51.464;-0.150;2022-10-16T10:00:50;101187.35;;;18.91;48.21
49063;BME280;34876;51.464;-0.150;2022-10-16T10:03:35;101190.04;;;18.92;48.20
49063;BME280;34876;51.464;-0.150;2022-10-16T10:06:16;101189.29;;;18.90;48.23
49063;BME280;34876;51.464;-0.150;2022-10-16T10:09:06;101192.70;;;18.95;48.12
49063;BME280;34876;51.464;-0.150;2022-10-16T10:11:46;101199.26;;;18.87;48.32
49063;BME280;34876;51.464;-0.150;2022-10-16T10:14:20;101203.78;;;18.86;48.32
49063;BME280;34876;51.464;-0.150;2022-10-16T10:16:51;101211.82;;;18.91;48.19
49063;BME280;34876;51.464;-0.150;2022-10-16T10:19:22;101211.42;;;18.87;48.28
49063;BME280;34876;51.464;-0.150;2022-10-16T10:21:53;101212.86;;;18.84;48.37
49063;BME280;34876;51.464;-0.150;2022-10-16T10:24:21;101213.05;;;18.80;48.49
49063;BME280;34876;51.464;-0.150;2022-10-16T10:26:55;101209.90;;;18.79;48.50
49063;BME280;34876;51.464;-0.150;2022-10-16T10:29:35;101203.66;;;18.83;48.40
49063;BME280;34876;51.464;-0.150;2022-10-16T10:32:21;101201.45;;;18.78;48.53
49063;BME280;34876;51.464;-0.150;2022-10-16T10:35:07;101202.66;;;18.78;48.55
49063;BME280;34876;51.464;-0.150;2022-10-16T10:37:53;101200.97;;;18.78;48.58
49063;BME280;34876;51.464;-0.150;2022-10-16T10:40:34;101202.79;;;18.80;48.47
49063;BME280;34876;51.464;-0.150;2022-10-16T10:43:17;101199.92;;;18.84;48.45
49063;BME280;34876;51.464;-0.150;2022-10-16T10:45:54;101196.58;;;18.80;48.52
49063;BME280;34876;51.464;-0.150;2022-10-16T10:48:43;101201.25;;;18.82;48.46
49063;BME280;34876;51.464;-0.150;2022-10-16T10:51:20;101205.59;;;18.86;48.35
49063;BME280;34876;51.464;-0.150;2022-10-16T10:53:59;101202.66;;;18.85;48.34
49063;BME280;34876;51.464;-0.150;2022-10-16T10:56:43;101202.02;;;18.89;48.23
49063;BME280;34876;51.464;-0.150;2022-10-16T10:59:28;101201.01;;;18.89;48.26
49063;BME280;34876;51.464;-0.150;2022-10-16T11:02:03;101198.98;;;18.90;48.26
49063;BME280;34876;51.464;-0.150;2022-10-16T11:05:49;101195.40;;;18.89;48.26
49063;BME280;34876;51.464;-0.150;2022-10-16T11:08:22;101189.88;;;18.82;48.50
49063;BME280;34876;51.464;-0.150;2022-10-16T11:11:00;101187.14;;;18.91;48.27
49063;BME280;34876;51.464;-0.150;2022-10-16T11:13:35;101188.90;;;18.91;48.21
49063;BME280;34876;51.464;-0.150;2022-10-16T11:16:11;101192.89;;;18.88;48.28
49063;BME280;34876;51.464;-0.150;2022-10-16T11:18:49;101193.75;;;18.85;48.39
49063;BME280;34876;51.464;-0.150;2022-10-16T11:21:21;101192.57;;;18.84;48.41
49063;BME280;34876;51.464;-0.150;2022-10-16T11:23:55;101188.68;;;18.76;48.69
49063;BME280;34876;51.464;-0.150;2022-10-16T11:26:29;101186.90;;;18.74;48.76
49063;BME280;34876;51.464;-0.150;2022-10-16T11:29:01;101182.74;;;18.81;48.56
49063;BME280;34876;51.464;-0.150;2022-10-16T11:31:37;101183.33;;;18.85;48.45
49063;BME280;34876;51.464;-0.150;2022-10-16T11:34:13;101184.41;;;18.82;48.48
49063;BME280;34876;51.464;-0.150;2022-10-16T11:36:51;101180.24;;;18.84;48.41
49063;BME280;34876;51.464;-0.150;2022-10-16T11:39:25;101180.44;;;18.85;48.40
49063;BME280;34876;51.464;-0.150;2022-10-16T11:42:01;101177.75;;;18.79;48.55
49063;BME280;34876;51.464;-0.150;2022-10-16T11:44:39;101180.47;;;18.78;48.60
49063;BME280;34876;51.464;-0.150;2022-10-16T11:47:26;101184.33;;;18.75;48.73
49063;BME280;34876;51.464;-0.150;2022-10-16T11:50:02;101185.13;;;18.77;48.65
49063;BME280;34876;51.464;-0.150;2022-10-16T11:52:36;101181.95;;;18.77;48.67
49063;BME280;34876;51.464;-0.150;2022-10-16T11:55:16;101181.20;;;18.80;48.59
49063;BME280;34876;51.464;-0.150;2022-10-16T11:57:49;101178.38;;;18.79;48.60
49063;BME280;34876;51.464;-0.150;2022-10-16T12:00:22;101182.11;;;18.82;48.52
49063;BME280;34876;51.464;-0.150;2022-10-16T12:02:58;101178.75;;;18.81;48.50
49063;BME280;34876;51.464;-0.150;2022-10-16T12:05:39;101176.02;;;18.83;48.43
49063;BME280;34876;51.464;-0.150;2022-10-16T12:08:17;101178.06;;;18.84;48.43
49063;BME280;34876;51.464;-0.150;2022-10-16T12:10:48;101181.14;;;18.83;48.48
49063;BME280;34876;51.464;-0.150;2022-10-16T12:13:36;101180.99;;;18.85;48.47
49063;BME280;34876;51.464;-0.150;2022-10-16T12:16:20;101177.34;;;18.88;48.39
49063;BME280;34876;51.464;-0.150;2022-10-16T12:18:50;101174.32;;;19.00;48.03
49063;BME280;34876;51.464;-0.150;2022-10-16T12:21:32;101170.28;;;18.98;48.13
49063;BME280;34876;51.464;-0.150;2022-10-16T12:24:03;101170.14;;;18.98;48.11
49063;BME280;34876;51.464;-0.150;2022-10-16T12:26:36;101166.52;;;18.95;47.56
49063;BME280;34876;51.464;-0.150;2022-10-16T12:29:22;101163.50;;;18.94;48.19
49063;BME280;34876;51.464;-0.150;2022-10-16T12:31:53;101165.43;;;19.01;48.00
49063;BME280;34876;51.464;-0.150;2022-10-16T12:34:27;101160.21;;;18.99;48.11
49063;BME280;34876;51.464;-0.150;2022-10-16T12:37:14;101154.45;;;18.96;48.08
49063;BME280;34876;51.464;-0.150;2022-10-16T12:39:47;101151.86;;;18.91;48.25
49063;BME280;34876;51.464;-0.150;2022-10-16T12:42:23;101145.12;;;18.88;48.32
49063;BME280;34876;51.464;-0.150;2022-10-16T12:44:55;101145.46;;;18.91;48.01
49063;BME280;34876;51.464;-0.150;2022-10-16T12:47:37;101143.54;;;18.95;48.21
49063;BME280;34876;51.464;-0.150;2022-10-16T12:50:25;101144.49;;;18.87;48.35
49063;BME280;34876;51.464;-0.150;2022-10-16T12:52:56;101149.46;;;18.86;48.43
49063;BME280;34876;51.464;-0.150;2022-10-16T12:55:33;101145.94;;;18.80;48.62
49063;BME280;34876;51.464;-0.150;2022-10-16T12:58:14;101146.02;;;18.76;48.75
49063;BME280;34876;51.464;-0.150;2022-10-16T13:00:57;101148.11;;;18.80;48.57
49063;BME280;34876;51.464;-0.150;2022-10-16T13:03:42;101148.95;;;18.81;48.57
49063;BME280;34876;51.464;-0.150;2022-10-16T13:06:23;101150.18;;;18.85;48.53
49063;BME280;34876;51.464;-0.150;2022-10-16T13:09:09;101149.91;;;18.93;48.33
49063;BME280;34876;51.464;-0.150;2022-10-16T13:11:52;101145.15;;;18.83;48.56